Time,TemperatureF,DewpointF,PressureIn,WindDirection,WindDirectionDegrees,WindSpeedMPH,WindSpeedGustMPH,Humidity,HourlyPrecipIn,Conditions,Clouds,dailyrainin,SolarRadiationWatts/m^2,SoftwareType,DateUTC
2013-08-04 00:40:00,56.0,42.0,30.07,WNW,301,2.0,5.0,58,-99.99,,,-99.99,0.000000,,2013-08-04 07:40:00,
2013-08-04 01:32:00,56.0,42.0,30.07,WNW,301,2.0,5.0,58,-99.99,,,-99.99,0.000000,,2013-08-04 08:32:00,
2013-08-04 07:40:00,56.0,44.0,30.11,ENE,67,0.0,1.0,64,-99.99,,,-99.99,230.000000,,2013-08-04 14:40:00,
2013-08-04 08:22:00,56.0,44.0,30.11,ENE,67,0.0,1.0,64,-99.99,,,-99.99,230.000000,,2013-08-04 15:22:00,
2013-08-04 08:32:00,56.0,44.0,30.11,ENE,67,0.0,1.0,64,-99.99,,,-99.99,230.000000,,2013-08-04 15:32:00,
2013-08-04 08:40:00,62.0,43.0,30.12,NW,309,1.0,2.0,49,-99.99,,,-99.99,450.000000,,2013-08-04 15:40:00,
2013-08-04 09:33:00,62.0,43.0,30.12,NW,309,1.0,2.0,49,-99.99,,,-99.99,450.000000,,2013-08-04 16:33:00,
2013-08-04 09:40:00,69.0,41.0,30.11,NNE,24,1.0,4.0,35,-99.99,,,-99.99,650.000000,,2013-08-04 16:40:00,
2013-08-04 10:22:00,69.0,41.0,30.11,NNE,24,1.0,4.0,35,-99.99,,,-99.99,650.000000,,2013-08-04 17:22:00,
2013-08-04 10:32:00,69.0,41.0,30.11,NNE,24,1.0,4.0,35,-99.99,,,-99.99,650.000000,,2013-08-04 17:32:00,
2013-08-04 10:40:00,74.0,44.0,30.10,West,259,2.0,3.0,34,-99.99,,,-99.99,810.000000,,2013-08-04 17:40:00,
2013-08-04 11:22:00,74.0,44.0,30.10,West,259,2.0,3.0,34,-99.99,,,-99.99,810.000000,,2013-08-04 18:22:00,
2013-08-04 11:33:00,74.0,44.0,30.10,West,259,2.0,3.0,34,-99.99,,,-99.99,810.000000,,2013-08-04 18:33:00,
2013-08-04 11:40:00,79.0,38.0,30.08,West,272,2.0,4.0,23,-99.99,,,-99.99,930.000000,,2013-08-04 18:40:00,
2013-08-04 12:22:00,79.0,38.0,30.08,West,272,2.0,4.0,23,-99.99,,,-99.99,930.000000,,2013-08-04 19:22:00,
2013-08-04 12:33:00,79.0,38.0,30.08,West,272,2.0,4.0,23,-99.99,,,-99.99,930.000000,,2013-08-04 19:33:00,
2013-08-04 19:40:00,76.0,40.0,30.01,West,272,15.0,26.0,28,-99.99,,,-99.99,20.000000,,2013-08-05 02:40:00,
2013-08-04 20:22:00,76.0,40.0,30.01,West,272,15.0,26.0,28,-99.99,,,-99.99,20.000000,,2013-08-05 03:22:00,
2013-08-04 20:32:00,76.0,40.0,30.01,West,272,15.0,26.0,28,-99.99,,,-99.99,20.000000,,2013-08-05 03:32:00,
2013-08-04 20:40:00,73.0,39.0,30.03,West,264,6.0,12.0,29,-99.99,,,-99.99,0.000000,,2013-08-05 03:40:00,
2013-08-04 21:22:00,73.0,39.0,30.03,West,264,6.0,12.0,29,-99.99,,,-99.99,0.000000,,2013-08-05 04:22:00,
2013-08-04 21:32:00,73.0,39.0,30.03,West,264,6.0,12.0,29,-99.99,,,-99.99,0.000000,,2013-08-05 04:32:00,
2013-08-04 21:40:00,72.0,37.0,30.06,East,100,6.0,14.0,27,-99.99,,,-99.99,0.000000,,2013-08-05 04:40:00,
2013-08-04 22:22:00,72.0,37.0,30.06,East,100,6.0,14.0,27,-99.99,,,-99.99,0.000000,,2013-08-05 05:22:00,
2013-08-04 22:32:00,72.0,37.0,30.06,East,100,6.0,14.0,27,-99.99,,,-99.99,0.000000,,2013-08-05 05:32:00,
2013-08-04 22:40:00,64.0,38.0,30.08,ESE,114,6.0,8.0,39,-99.99,,,-99.99,0.000000,,2013-08-05 05:40:00,
2013-08-04 23:32:00,64.0,38.0,30.08,ESE,114,6.0,8.0,39,-99.99,,,-99.99,0.000000,,2013-08-05 06:32:00,